createdAt,value
2018-07-07T00:01:30.144Z,6.00
2018-07-07T00:03:59.593Z,7.20
2018-07-07T00:06:28.980Z,5.97
2018-07-07T00:08:58.336Z,6.23
2018-07-07T00:11:28.339Z,6.20
2018-07-07T00:13:57.744Z,5.47
2018-07-07T00:16:27.349Z,5.73
2018-07-07T00:18:56.646Z,5.60
2018-07-07T00:21:26.024Z,5.20
2018-07-07T00:23:55.344Z,5.30
2018-07-07T00:26:24.655Z,5.97
2018-07-07T00:28:54.249Z,5.67
2018-07-07T00:31:23.570Z,6.07
2018-07-07T00:33:52.873Z,5.73
2018-07-07T00:36:22.239Z,5.70
2018-07-07T00:38:51.545Z,5.10
2018-07-07T00:41:20.936Z,5.50
2018-07-07T00:43:50.233Z,6.60
2018-07-07T00:46:19.565Z,4.90
2018-07-07T00:48:48.886Z,5.70
2018-07-07T00:51:18.257Z,5.57
2018-07-07T00:53:47.707Z,5.23
2018-07-07T00:56:17.107Z,6.23
2018-07-07T00:58:46.513Z,5.87
2018-07-07T01:01:15.984Z,4.97
2018-07-07T01:03:45.874Z,5.53
2018-07-07T01:06:19.451Z,6.40
2018-07-07T01:08:48.718Z,5.40
2018-07-07T01:11:18.107Z,4.97
2018-07-07T01:13:47.613Z,5.43
2018-07-07T01:16:17.313Z,4.90
2018-07-07T01:18:46.735Z,5.77
2018-07-07T01:21:16.024Z,5.17
2018-07-07T01:23:45.371Z,6.47
2018-07-07T01:26:14.735Z,6.80
2018-07-07T01:28:44.143Z,7.50
2018-07-07T01:31:13.836Z,6.60
2018-07-07T01:33:43.201Z,6.20
2018-07-07T01:36:12.552Z,6.90
2018-07-07T01:38:42.057Z,7.13
2018-07-07T01:41:11.638Z,6.30
2018-07-07T01:43:41.048Z,6.33
2018-07-07T01:46:10.529Z,6.50
2018-07-07T01:48:40.096Z,7.53
2018-07-07T01:51:09.467Z,6.07
2018-07-07T01:53:38.866Z,6.03
2018-07-07T01:56:08.225Z,6.37
2018-07-07T01:58:37.501Z,5.20
2018-07-07T02:01:07.270Z,6.43
2018-07-07T02:03:36.578Z,4.90
2018-07-07T02:06:05.979Z,5.50
2018-07-07T02:08:35.339Z,6.10
2018-07-07T02:11:04.718Z,5.87
2018-07-07T02:13:34.144Z,6.90
2018-07-07T02:16:03.161Z,6.10
2018-07-07T02:18:32.761Z,5.33
2018-07-07T02:21:02.738Z,5.90
2018-07-07T02:23:32.280Z,5.87
2018-07-07T02:26:01.845Z,6.53
2018-07-07T02:28:31.275Z,4.80
2018-07-07T02:31:00.696Z,5.43
2018-07-07T02:33:30.356Z,6.40
2018-07-07T02:35:59.843Z,6.10
2018-07-07T02:38:29.313Z,5.20
2018-07-07T02:41:02.003Z,5.43
2018-07-07T02:43:31.357Z,5.80
2018-07-07T02:46:01.070Z,5.90
2018-07-07T02:48:30.411Z,6.80
2018-07-07T02:51:00.161Z,6.00
2018-07-07T02:53:29.637Z,5.97
2018-07-07T02:55:58.980Z,5.80
2018-07-07T02:58:28.318Z,5.60
2018-07-07T03:00:57.956Z,5.60
2018-07-07T03:03:27.498Z,4.73
2018-07-07T03:05:57.014Z,5.07
2018-07-07T03:08:26.396Z,6.60
2018-07-07T03:10:56.092Z,5.80
2018-07-07T03:13:25.535Z,5.37
2018-07-07T03:15:54.943Z,5.97
2018-07-07T03:18:24.847Z,5.37
2018-07-07T03:20:54.251Z,6.00
2018-07-07T03:23:23.260Z,6.27
2018-07-07T03:25:52.592Z,6.30
2018-07-07T03:28:21.945Z,5.10
2018-07-07T03:30:51.359Z,6.60
2018-07-07T03:33:20.865Z,6.10
2018-07-07T03:35:50.197Z,6.33
2018-07-07T03:38:19.503Z,6.20
2018-07-07T03:40:49.103Z,6.30
2018-07-07T03:43:19.235Z,6.03
2018-07-07T03:45:48.801Z,6.30
2018-07-07T03:48:18.246Z,6.23
2018-07-07T03:50:47.993Z,6.47
2018-07-07T03:53:18.323Z,6.57
2018-07-07T03:55:47.849Z,5.73
2018-07-07T03:58:17.227Z,6.43
2018-07-07T04:00:46.792Z,6.50
2018-07-07T04:03:16.296Z,5.90
2018-07-07T04:05:45.657Z,5.17
2018-07-07T04:08:16.120Z,7.73
2018-07-07T04:10:45.632Z,5.90
2018-07-07T04:13:15.137Z,6.10
2018-07-07T04:15:44.638Z,5.87
2018-07-07T04:18:14.080Z,6.40
2018-07-07T04:20:43.438Z,6.90
2018-07-07T04:23:12.874Z,7.40
2018-07-07T04:25:42.386Z,7.60
2018-07-07T04:28:11.729Z,7.23
2018-07-07T04:30:41.037Z,6.53
2018-07-07T04:33:10.427Z,6.30
2018-07-07T04:35:39.750Z,7.20
2018-07-07T04:38:09.232Z,6.07
2018-07-07T04:40:38.537Z,6.60
2018-07-07T04:43:08.125Z,6.47
2018-07-07T04:45:37.444Z,5.33
2018-07-07T04:48:06.779Z,5.90
2018-07-07T04:50:36.437Z,5.70
2018-07-07T04:53:06.377Z,5.43
2018-07-07T04:55:35.914Z,5.30
2018-07-07T04:58:05.362Z,5.70
2018-07-07T05:00:34.767Z,5.47
2018-07-07T05:03:04.290Z,5.20
2018-07-07T05:05:33.619Z,5.60
2018-07-07T05:08:02.923Z,6.00
2018-07-07T05:10:32.351Z,6.10
2018-07-07T05:13:01.675Z,5.30
2018-07-07T05:15:31.042Z,5.17
2018-07-07T05:18:00.337Z,6.60
2018-07-07T05:20:30.264Z,5.60
2018-07-07T05:23:00.312Z,6.03
2018-07-07T05:25:29.285Z,5.77
2018-07-07T05:27:58.517Z,6.00
2018-07-07T05:30:27.914Z,4.77
2018-07-07T05:32:57.214Z,4.50
2018-07-07T05:35:26.525Z,5.17
2018-07-07T05:37:55.892Z,5.40
2018-07-07T05:40:25.285Z,5.90
2018-07-07T05:42:54.882Z,5.90
2018-07-07T05:45:24.359Z,5.10
2018-07-07T05:47:54.582Z,5.37
2018-07-07T05:50:23.937Z,5.60
2018-07-07T05:52:53.412Z,5.10
2018-07-07T05:55:22.714Z,5.60
2018-07-07T05:57:52.117Z,5.37
2018-07-07T06:00:21.479Z,5.70
2018-07-07T06:02:50.515Z,5.90
2018-07-07T06:05:19.736Z,5.10
2018-07-07T06:07:49.051Z,5.30
2018-07-07T06:10:18.384Z,5.17
2018-07-07T06:12:47.752Z,4.60
2018-07-07T06:15:17.076Z,4.83
2018-07-07T06:17:46.469Z,5.50
2018-07-07T06:20:15.766Z,5.83
2018-07-07T06:22:44.800Z,4.80
2018-07-07T06:25:13.915Z,4.93
2018-07-07T06:27:43.324Z,4.17
2018-07-07T06:30:12.806Z,5.20
2018-07-07T06:32:42.205Z,5.03
2018-07-07T06:35:11.569Z,5.07
2018-07-07T06:37:40.869Z,4.47
2018-07-07T06:40:10.135Z,4.83
2018-07-07T06:42:39.460Z,5.83
2018-07-07T06:45:08.426Z,4.03
2018-07-07T06:47:37.699Z,4.20
2018-07-07T06:50:07.206Z,4.70
2018-07-07T06:52:36.583Z,4.57
2018-07-07T06:55:06.303Z,4.27
2018-07-07T06:57:35.600Z,3.80
2018-07-07T07:00:05.415Z,3.93
2018-07-07T07:02:34.670Z,3.00
2018-07-07T07:05:03.689Z,3.53
2018-07-07T07:07:32.919Z,3.43
2018-07-07T07:10:02.259Z,2.17
2018-07-07T07:12:31.539Z,1.80
2018-07-07T07:15:00.905Z,1.80
2018-07-07T07:17:30.223Z,1.80
2018-07-07T07:19:59.733Z,1.97
2018-07-07T07:22:29.132Z,1.50
2018-07-07T07:24:58.488Z,1.90
2018-07-07T07:27:27.808Z,1.90
2018-07-07T07:29:57.285Z,1.90
2018-07-07T07:32:26.582Z,2.00
2018-07-07T07:34:55.894Z,2.40
2018-07-07T07:37:25.225Z,1.93
2018-07-07T07:39:54.560Z,1.93
2018-07-07T07:42:23.867Z,1.70
2018-07-07T07:44:53.178Z,1.97
2018-07-07T07:47:22.551Z,1.87
2018-07-07T07:49:51.912Z,2.03
2018-07-07T07:52:21.263Z,1.80
2018-07-07T07:54:50.563Z,1.80
2018-07-07T07:57:19.908Z,1.47
2018-07-07T07:59:49.194Z,2.03
2018-07-07T08:02:18.584Z,1.70
2018-07-07T08:04:47.992Z,2.00
2018-07-07T08:07:16.919Z,1.70
2018-07-07T08:09:46.238Z,2.00
2018-07-07T08:12:15.634Z,1.70
2018-07-07T08:14:44.909Z,1.83
2018-07-07T08:17:14.250Z,1.60
2018-07-07T08:19:43.605Z,1.70
2018-07-07T08:22:12.951Z,1.90
2018-07-07T08:24:42.282Z,2.03
2018-07-07T08:27:11.674Z,2.03
2018-07-07T08:29:40.851Z,1.40
2018-07-07T08:32:10.276Z,1.80
2018-07-07T08:34:39.617Z,2.23
2018-07-07T08:37:09.746Z,2.00
2018-07-07T08:39:39.171Z,2.40
2018-07-07T08:42:08.531Z,2.10
2018-07-07T08:44:37.956Z,2.17
2018-07-07T08:47:07.348Z,2.43
2018-07-07T08:49:37.546Z,2.90
2018-07-07T08:52:07.699Z,2.63
2018-07-07T08:54:37.227Z,2.50
2018-07-07T08:57:06.603Z,2.50
2018-07-07T08:59:36.154Z,2.90
2018-07-07T09:02:05.627Z,2.43
2018-07-07T09:04:35.016Z,2.13
2018-07-07T09:07:04.366Z,2.80
2018-07-07T09:09:33.742Z,2.50
2018-07-07T09:12:03.142Z,3.07
2018-07-07T09:14:32.615Z,2.60
2018-07-07T09:17:02.412Z,3.70
2018-07-07T09:19:31.856Z,2.43
2018-07-07T09:22:01.313Z,3.23
2018-07-07T09:24:30.630Z,3.03
2018-07-07T09:27:00.877Z,3.40
2018-07-07T09:29:30.811Z,2.90
2018-07-07T09:32:00.144Z,3.27
2018-07-07T09:34:29.480Z,3.10
2018-07-07T09:36:58.900Z,3.37
2018-07-07T09:39:28.319Z,3.10
2018-07-07T09:41:57.609Z,2.40
2018-07-07T09:44:27.080Z,2.80
2018-07-07T09:46:56.415Z,3.27
2018-07-07T09:49:26.240Z,3.00
2018-07-07T09:51:55.567Z,2.80
2018-07-07T09:54:25.408Z,2.90
2018-07-07T09:56:54.879Z,3.00
2018-07-07T09:59:24.450Z,2.60
2018-07-07T10:01:53.954Z,2.80
2018-07-07T10:04:23.383Z,3.33
2018-07-07T10:06:52.681Z,2.30
2018-07-07T10:09:21.977Z,3.10
2018-07-07T10:11:51.270Z,3.80
2018-07-07T10:14:20.563Z,2.83
2018-07-07T10:16:49.843Z,3.30
2018-07-07T10:19:19.872Z,4.23
2018-07-07T10:21:49.216Z,3.60
2018-07-07T10:24:18.665Z,4.17
2018-07-07T10:26:48.065Z,3.37
2018-07-07T10:29:17.334Z,2.93
2018-07-07T10:31:46.724Z,3.43
2018-07-07T10:34:15.659Z,2.60
2018-07-07T10:36:45.058Z,2.77
2018-07-07T10:39:14.608Z,7.90
2018-07-07T10:41:44.000Z,2.90
2018-07-07T10:44:13.470Z,3.30
2018-07-07T10:46:42.861Z,3.00
2018-07-07T10:49:12.322Z,2.90
2018-07-07T10:51:41.473Z,3.20
2018-07-07T10:54:10.654Z,2.77
2018-07-07T10:56:40.019Z,2.53
2018-07-07T10:59:09.164Z,2.90
2018-07-07T11:01:38.637Z,3.20
2018-07-07T11:04:09.023Z,3.17
2018-07-07T11:06:38.395Z,2.80
2018-07-07T11:09:08.017Z,2.90
2018-07-07T11:11:37.411Z,2.70
2018-07-07T11:14:06.914Z,3.63
2018-07-07T11:16:36.301Z,2.43
2018-07-07T11:19:05.954Z,3.17
2018-07-07T11:21:35.323Z,4.03
2018-07-07T11:24:04.651Z,2.90
2018-07-07T11:26:34.025Z,2.60
2018-07-07T11:29:03.365Z,2.30
2018-07-07T11:31:32.935Z,2.73
2018-07-07T11:34:02.253Z,2.73
2018-07-07T11:36:31.760Z,2.87
2018-07-07T11:39:01.009Z,2.60
2018-07-07T11:41:30.344Z,1.90
2018-07-07T11:43:59.636Z,1.80
2018-07-07T11:46:29.087Z,1.87
2018-07-07T11:48:59.425Z,1.63
2018-07-07T11:51:28.294Z,2.00
2018-07-07T11:53:57.580Z,2.00
2018-07-07T11:56:26.956Z,1.90
2018-07-07T11:58:56.308Z,2.30
2018-07-07T12:01:25.669Z,2.20
2018-07-07T12:03:55.142Z,2.87
2018-07-07T12:06:24.608Z,2.67
2018-07-07T12:08:54.000Z,2.47
2018-07-07T12:11:23.396Z,2.10
2018-07-07T12:13:52.761Z,2.53
2018-07-07T12:16:22.094Z,1.87
2018-07-07T12:18:51.662Z,2.50
2018-07-07T12:21:21.056Z,2.77
2018-07-07T12:23:50.484Z,2.00
2018-07-07T12:26:19.797Z,2.30
2018-07-07T12:28:49.170Z,2.43
2018-07-07T12:31:19.559Z,1.97
2018-07-07T12:33:48.876Z,2.27
2018-07-07T12:36:18.272Z,2.17
2018-07-07T12:38:47.629Z,2.30
2018-07-07T12:41:17.072Z,2.07
2018-07-07T12:43:46.519Z,2.77
2018-07-07T12:46:15.888Z,2.40
2018-07-07T12:48:45.329Z,2.60
2018-07-07T12:51:14.775Z,2.10
2018-07-07T12:53:44.338Z,2.10
2018-07-07T12:56:14.770Z,2.03
2018-07-07T12:58:44.196Z,2.27
2018-07-07T13:01:13.761Z,2.23
2018-07-07T13:03:43.152Z,2.20
2018-07-07T13:06:12.509Z,2.43
2018-07-07T13:08:41.932Z,2.20
2018-07-07T13:11:10.891Z,2.67
2018-07-07T13:13:40.176Z,2.00
2018-07-07T13:16:09.680Z,2.07
2018-07-07T13:18:39.022Z,2.37
2018-07-07T13:21:08.514Z,3.17
2018-07-07T13:23:37.835Z,3.07
2018-07-07T13:26:06.773Z,2.30
2018-07-07T13:28:35.972Z,2.57
2018-07-07T13:31:05.481Z,2.00
2018-07-07T13:33:35.575Z,2.00
2018-07-07T13:36:04.995Z,2.40
2018-07-07T13:38:37.100Z,1.87
2018-07-07T13:41:08.434Z,2.70
2018-07-07T13:43:38.896Z,1.80
2018-07-07T13:46:08.504Z,2.90
2018-07-07T13:48:37.909Z,2.90
2018-07-07T13:51:07.437Z,3.20
2018-07-07T13:53:36.400Z,2.70
2018-07-07T13:56:05.833Z,1.77
2018-07-07T13:58:35.268Z,2.43
2018-07-07T14:01:05.490Z,2.20
2018-07-07T14:03:35.038Z,2.47
2018-07-07T14:06:04.468Z,1.97
2018-07-07T14:08:34.745Z,2.50
2018-07-07T14:11:03.738Z,2.30
2018-07-07T14:13:33.036Z,2.63
2018-07-07T14:16:02.361Z,2.33
2018-07-07T14:18:31.766Z,2.00
2018-07-07T14:21:01.166Z,2.07
2018-07-07T14:23:30.627Z,2.07
2018-07-07T14:26:00.054Z,1.77
2018-07-07T14:28:29.711Z,1.57
2018-07-07T14:30:59.230Z,2.13
2018-07-07T14:33:28.630Z,2.03
2018-07-07T14:35:58.030Z,2.17
2018-07-07T14:38:34.030Z,1.40
2018-07-07T14:41:14.493Z,1.90
2018-07-07T14:43:48.444Z,1.70
2018-07-07T14:46:17.716Z,2.23
2018-07-07T14:48:47.060Z,3.20
2018-07-07T14:51:16.690Z,22.83
2018-07-07T14:53:46.261Z,1.67
2018-07-07T14:56:16.623Z,1.63
2018-07-07T14:58:45.981Z,2.13
2018-07-07T15:01:15.401Z,2.30
2018-07-07T15:03:45.213Z,2.77
2018-07-07T15:06:15.129Z,2.60
2018-07-07T15:08:44.517Z,1.80
2018-07-07T15:11:13.879Z,2.00
2018-07-07T15:13:42.983Z,2.33
2018-07-07T15:16:11.875Z,1.70
2018-07-07T15:18:42.178Z,2.73
2018-07-07T15:21:11.702Z,2.23
2018-07-07T15:23:41.690Z,3.00
2018-07-07T15:26:11.015Z,2.10
2018-07-07T15:28:40.353Z,2.00
2018-07-07T15:31:09.720Z,2.03
2018-07-07T15:33:39.083Z,2.20
2018-07-07T15:36:08.639Z,1.97
2018-07-07T15:38:38.204Z,3.27
2018-07-07T15:41:07.505Z,3.03
2018-07-07T15:43:36.847Z,1.83
2018-07-07T15:46:06.372Z,1.90
2018-07-07T15:48:35.739Z,2.87
2018-07-07T15:51:04.903Z,1.80
2018-07-07T15:53:34.110Z,1.80
2018-07-07T15:56:03.499Z,1.70
2018-07-07T15:58:33.073Z,2.50
2018-07-07T16:01:02.616Z,2.77
2018-07-07T16:03:32.111Z,2.87
2018-07-07T16:06:01.390Z,2.43
2018-07-07T16:08:30.718Z,2.10
2018-07-07T16:11:00.105Z,2.50
2018-07-07T16:13:29.628Z,2.33
2018-07-07T16:15:58.977Z,2.83
2018-07-07T16:18:28.424Z,3.00
2018-07-07T16:20:57.881Z,2.40
2018-07-07T16:23:27.385Z,2.93
2018-07-07T16:25:56.451Z,3.70
2018-07-07T16:28:25.792Z,2.60
2018-07-07T16:30:55.570Z,4.07
2018-07-07T16:33:25.727Z,2.30
2018-07-07T16:35:55.088Z,2.80
2018-07-07T16:38:24.913Z,3.07
2018-07-07T16:40:54.104Z,2.40
2018-07-07T16:43:24.450Z,2.70
2018-07-07T16:45:53.843Z,2.40
2018-07-07T16:48:23.827Z,3.13
2018-07-07T16:50:53.514Z,9.73
2018-07-07T16:53:23.015Z,3.20
2018-07-07T16:55:52.423Z,2.57
2018-07-07T16:58:22.222Z,2.30
2018-07-07T17:00:51.634Z,2.60
2018-07-07T17:03:21.293Z,2.33
2018-07-07T17:05:50.807Z,2.53
2018-07-07T17:08:20.247Z,4.73
2018-07-07T17:10:49.658Z,1.80
2018-07-07T17:13:19.112Z,2.40
2018-07-07T17:15:49.463Z,1.90
2018-07-07T17:18:18.994Z,3.10
2018-07-07T17:20:48.075Z,3.10
2018-07-07T17:23:17.474Z,2.63
2018-07-07T17:25:47.183Z,2.70
2018-07-07T17:28:16.616Z,3.03
2018-07-07T17:30:46.031Z,3.63
2018-07-07T17:33:15.631Z,2.70
2018-07-07T17:35:45.698Z,4.20
2018-07-07T17:38:16.178Z,3.60
2018-07-07T17:40:46.248Z,2.93
2018-07-07T17:43:15.707Z,3.00
2018-07-07T17:45:45.274Z,2.47
2018-07-07T17:48:15.838Z,2.70
2018-07-07T17:50:45.335Z,2.60
2018-07-07T17:53:16.505Z,2.37
2018-07-07T17:55:45.549Z,2.97
2018-07-07T17:58:14.875Z,2.90
2018-07-07T18:00:44.627Z,2.10
2018-07-07T18:03:14.563Z,2.87
2018-07-07T18:05:44.137Z,3.80
2018-07-07T18:08:14.370Z,2.20
2018-07-07T18:10:43.734Z,2.70
2018-07-07T18:13:13.059Z,2.20
2018-07-07T18:15:42.363Z,3.03
2018-07-07T18:18:11.394Z,3.50
2018-07-07T18:20:40.778Z,2.53
2018-07-07T18:23:10.181Z,2.57
2018-07-07T18:25:39.495Z,2.37
2018-07-07T18:28:08.819Z,2.63
2018-07-07T18:30:38.453Z,2.50
2018-07-07T18:33:07.385Z,3.60
2018-07-07T18:35:36.754Z,2.93
2018-07-07T18:38:06.528Z,2.60
2018-07-07T18:40:35.785Z,2.93
2018-07-07T18:43:05.662Z,3.00
2018-07-07T18:45:35.809Z,3.03
2018-07-07T18:48:05.259Z,3.10
2018-07-07T18:50:34.810Z,2.60
2018-07-07T18:53:04.405Z,2.00
2018-07-07T18:55:33.849Z,3.20
2018-07-07T18:58:03.257Z,2.83
2018-07-07T19:00:33.215Z,2.77
2018-07-07T19:03:02.766Z,3.00
2018-07-07T19:05:32.303Z,2.20
2018-07-07T19:08:02.245Z,3.00
2018-07-07T19:10:32.026Z,2.50
2018-07-07T19:13:01.401Z,8.13
2018-07-07T19:15:31.040Z,2.10
2018-07-07T19:18:00.392Z,2.03
2018-07-07T19:20:34.982Z,2.70
2018-07-07T19:23:09.902Z,2.73
2018-07-07T19:25:44.940Z,2.40
2018-07-07T19:28:14.579Z,2.90
2018-07-07T19:30:44.215Z,2.97
2018-07-07T19:33:19.188Z,2.57
2018-07-07T19:35:53.925Z,2.37
2018-07-07T19:38:23.206Z,2.10
2018-07-07T19:40:53.203Z,2.40
2018-07-07T19:43:23.096Z,2.47
2018-07-07T19:45:52.473Z,2.80
2018-07-07T19:48:21.945Z,2.57
2018-07-07T19:50:51.794Z,2.50
2018-07-07T19:53:21.325Z,2.20
2018-07-07T19:55:50.672Z,2.50
2018-07-07T19:58:20.411Z,3.50
2018-07-07T20:00:49.765Z,2.77
2018-07-07T20:03:19.205Z,3.10
2018-07-07T20:05:48.283Z,2.50
2018-07-07T20:08:17.715Z,2.20
2018-07-07T20:10:49.759Z,2.53
2018-07-07T20:13:19.334Z,3.20
2018-07-07T20:16:20.700Z,3.60
2018-07-07T20:19:16.532Z,3.20
2018-07-07T20:21:51.327Z,4.90
2018-07-07T20:24:23.257Z,4.37
2018-07-07T20:26:57.792Z,2.73
2018-07-07T20:29:27.347Z,8.30
2018-07-07T20:31:56.715Z,7.60
2018-07-07T20:34:27.466Z,3.53
2018-07-07T20:36:56.972Z,3.43
2018-07-07T20:39:26.682Z,3.73
2018-07-07T20:41:56.206Z,3.70
2018-07-07T20:44:25.535Z,3.70
2018-07-07T20:46:54.937Z,4.90
2018-07-07T20:49:24.409Z,3.83
2018-07-07T20:51:53.671Z,4.20
2018-07-07T20:54:23.195Z,2.73
2018-07-07T20:56:52.520Z,3.00
2018-07-07T20:59:21.645Z,3.87
2018-07-07T21:01:50.890Z,3.53
2018-07-07T21:04:20.278Z,3.40
2018-07-07T21:06:49.673Z,3.30
2018-07-07T21:09:20.057Z,3.50
2018-07-07T21:11:49.000Z,4.40
2018-07-07T21:14:17.844Z,3.50
2018-07-07T21:16:47.158Z,4.33
2018-07-07T21:19:16.093Z,4.30
2018-07-07T21:21:45.521Z,4.90
2018-07-07T21:24:14.957Z,3.27
2018-07-07T21:26:44.266Z,4.00
2018-07-07T21:29:13.706Z,3.60
2018-07-07T21:31:46.045Z,3.27
2018-07-07T21:34:16.504Z,2.97
2018-07-07T21:36:45.799Z,5.47
2018-07-07T21:39:15.084Z,4.10
2018-07-07T21:41:45.012Z,6.00
2018-07-07T21:44:14.609Z,5.27
2018-07-07T21:46:44.142Z,4.20
2018-07-07T21:49:14.267Z,4.20
2018-07-07T21:51:43.713Z,4.17
2018-07-07T21:54:12.869Z,3.70
2018-07-07T21:56:42.270Z,3.90
2018-07-07T21:59:17.109Z,3.50
2018-07-07T22:01:56.586Z,3.43
2018-07-07T22:04:32.166Z,3.40
2018-07-07T22:07:08.855Z,3.57
2018-07-07T22:09:38.821Z,2.90
2018-07-07T22:12:08.334Z,3.13
2018-07-07T22:14:37.974Z,2.80
2018-07-07T22:17:07.379Z,3.67
2018-07-07T22:19:36.798Z,3.43
2018-07-07T22:22:07.417Z,3.90
2018-07-07T22:24:37.635Z,3.80
2018-07-07T22:27:08.494Z,3.70
2018-07-07T22:29:38.164Z,3.97
2018-07-07T22:32:13.888Z,3.47
2018-07-07T22:34:43.874Z,2.93
2018-07-07T22:37:12.843Z,3.27
2018-07-07T22:39:43.137Z,2.63
2018-07-07T22:42:16.404Z,3.23
2018-07-07T22:44:47.992Z,3.27
2018-07-07T22:47:17.361Z,3.47
2018-07-07T22:49:46.720Z,3.33
2018-07-07T22:52:16.109Z,3.77
2018-07-07T22:54:45.488Z,3.50
2018-07-07T22:57:14.799Z,3.90
2018-07-07T22:59:44.361Z,3.70
2018-07-07T23:02:13.650Z,2.53
2018-07-07T23:04:43.112Z,3.20
2018-07-07T23:07:12.448Z,3.37
2018-07-07T23:09:41.810Z,3.00
2018-07-07T23:12:11.209Z,3.20
2018-07-07T23:14:40.726Z,2.83
2018-07-07T23:17:10.309Z,2.63
2018-07-07T23:19:39.593Z,2.63
2018-07-07T23:22:23.571Z,2.77
2018-07-07T23:24:53.298Z,3.40
2018-07-07T23:27:22.761Z,2.80
2018-07-07T23:29:52.245Z,2.63
2018-07-07T23:32:21.581Z,3.07
2018-07-07T23:34:51.046Z,2.60
2018-07-07T23:37:20.327Z,2.90
2018-07-07T23:39:49.704Z,3.17
2018-07-07T23:42:19.242Z,2.90
2018-07-07T23:44:48.748Z,2.87
2018-07-07T23:47:18.259Z,2.80
2018-07-07T23:49:47.973Z,2.50
2018-07-07T23:52:17.328Z,3.00
2018-07-07T23:54:46.714Z,2.57
2018-07-07T23:57:16.377Z,3.10
2018-07-07T23:59:46.117Z,2.60
